Terminal Aerodrome Forecast
Issued by NWS Wilmington, OH

Current Version | Previous Version | Text Only | Print | Product List | Glossary Off
Versions: 1 2 3 4 5 6 7 8 9 10 11 12 13 14 15 16 17 18 19 20 21 22 23 24 25

211
FTUS41 KILN 020653 AAA
TAFDAY
TAF AMD
KDAY 020653Z 0207/0306 34006KT P6SM SCT025 OVC100
      TEMPO 0208/0212 BKN025
     FM021200 34006KT P6SM OVC015
     FM021700 34006KT P6SM SCT015 BKN150
     FM022000 36007KT P6SM VCSH OVC025
     FM030200 02006KT 5SM BR BKN020=

USA.gov is the U.S. government's official web portal to all federal, state and local government web resources and services.